sensor_id;sensor_type;location;lat;lon;timestamp;temperature;humidity
52435;DHT22;38354;52.892;6.148;2022-08-19T03:02:03;15.40;99.90
52435;DHT22;38354;52.892;6.148;2022-08-19T03:04:28;15.50;99.90
52435;DHT22;38354;52.892;6.148;2022-08-19T03:06:55;15.50;99.90
52435;DHT22;38354;52.892;6.148;2022-08-19T03:09:20;15.50;99.90
52435;DHT22;38354;52.892;6.148;2022-08-19T03:11:46;15.40;99.90
52435;DHT22;38354;52.892;6.148;2022-08-19T03:14:13;15.40;99.90
52435;DHT22;38354;52.892;6.148;2022-08-19T03:16:45;15.30;99.90
52435;DHT22;38354;52.892;6.148;2022-08-19T03:19:12;15.30;99.90
52435;DHT22;38354;52.892;6.148;2022-08-19T03:21:38;15.30;99.90
52435;DHT22;38354;52.892;6.148;2022-08-19T03:24:08;15.30;99.90
52435;DHT22;38354;52.892;6.148;2022-08-19T03:26:37;15.30;99.90
52435;DHT22;38354;52.892;6.148;2022-08-19T03:29:04;15.30;99.90
52435;DHT22;38354;52.892;6.148;2022-08-19T03:31:31;15.30;99.90
52435;DHT22;38354;52.892;6.148;2022-08-19T03:33:57;15.30;99.90
52435;DHT22;38354;52.892;6.148;2022-08-19T03:36:25;15.30;99.90
52435;DHT22;38354;52.892;6.148;2022-08-19T03:38:53;15.30;99.90
52435;DHT22;38354;52.892;6.148;2022-08-19T03:41:22;15.30;99.90
52435;DHT22;38354;52.892;6.148;2022-08-19T03:43:48;15.30;99.90
52435;DHT22;38354;52.892;6.148;2022-08-19T03:46:20;15.30;99.90
52435;DHT22;38354;52.892;6.148;2022-08-19T03:48:47;15.30;99.90
52435;DHT22;38354;52.892;6.148;2022-08-19T03:51:29;15.20;99.90
52435;DHT22;38354;52.892;6.148;2022-08-19T03:54:00;15.20;99.90
52435;DHT22;38354;52.892;6.148;2022-08-19T03:56:27;15.20;99.90
52435;DHT22;38354;52.892;6.148;2022-08-19T03:58:57;15.20;99.90
52435;DHT22;38354;52.892;6.148;2022-08-19T04:01:24;15.20;99.90
52435;DHT22;38354;52.892;6.148;2022-08-19T04:03:57;15.20;99.90
52435;DHT22;38354;52.892;6.148;2022-08-19T04:06:25;15.20;99.90
52435;DHT22;38354;52.892;6.148;2022-08-19T04:08:53;15.20;99.90
52435;DHT22;38354;52.892;6.148;2022-08-19T04:11:26;15.10;99.90
52435;DHT22;38354;52.892;6.148;2022-08-19T04:13:53;15.10;99.90
52435;DHT22;38354;52.892;6.148;2022-08-19T04:16:20;15.10;99.90
52435;DHT22;38354;52.892;6.148;2022-08-19T04:18:47;15.10;99.90
52435;DHT22;38354;52.892;6.148;2022-08-19T04:21:21;15.20;99.90
52435;DHT22;38354;52.892;6.148;2022-08-19T04:23:47;15.10;99.90
52435;DHT22;38354;52.892;6.148;2022-08-19T04:26:18;15.10;99.90
52435;DHT22;38354;52.892;6.148;2022-08-19T04:28:45;15.10;99.90
52435;DHT22;38354;52.892;6.148;2022-08-19T04:31:37;15.10;99.90
52435;DHT22;38354;52.892;6.148;2022-08-19T04:34:05;15.10;99.90
52435;DHT22;38354;52.892;6.148;2022-08-19T04:36:34;15.10;99.90
52435;DHT22;38354;52.892;6.148;2022-08-19T04:39:04;15.00;99.90
52435;DHT22;38354;52.892;6.148;2022-08-19T04:41:30;15.10;99.90
52435;DHT22;38354;52.892;6.148;2022-08-19T04:44:14;15.10;99.90
52435;DHT22;38354;52.892;6.148;2022-08-19T04:46:44;15.10;99.90
52435;DHT22;38354;52.892;6.148;2022-08-19T04:49:10;15.10;99.90
52435;DHT22;38354;52.892;6.148;2022-08-19T04:51:39;15.10;99.90
52435;DHT22;38354;52.892;6.148;2022-08-19T04:54:05;15.10;99.90
52435;DHT22;38354;52.892;6.148;2022-08-19T04:56:30;15.10;99.90
52435;DHT22;38354;52.892;6.148;2022-08-19T04:58:57;15.20;99.90
52435;DHT22;38354;52.892;6.148;2022-08-19T05:01:27;15.20;99.90
52435;DHT22;38354;52.892;6.148;2022-08-19T05:03:58;15.20;99.90
52435;DHT22;38354;52.892;6.148;2022-08-19T05:06:25;15.20;99.90
52435;DHT22;38354;52.892;6.148;2022-08-19T05:08:51;15.20;99.90
52435;DHT22;38354;52.892;6.148;2022-08-19T05:11:19;15.20;99.90
52435;DHT22;38354;52.892;6.148;2022-08-19T05:13:47;15.20;99.90
52435;DHT22;38354;52.892;6.148;2022-08-19T05:16:15;15.20;99.90
52435;DHT22;38354;52.892;6.148;2022-08-19T05:18:41;15.20;99.90
52435;DHT22;38354;52.892;6.148;2022-08-19T05:21:26;15.20;99.90
52435;DHT22;38354;52.892;6.148;2022-08-19T05:24:11;15.20;99.90
52435;DHT22;38354;52.892;6.148;2022-08-19T05:26:43;15.20;99.90
52435;DHT22;38354;52.892;6.148;2022-08-19T05:29:13;15.20;99.90
52435;DHT22;38354;52.892;6.148;2022-08-19T05:31:39;15.30;99.90
52435;DHT22;38354;52.892;6.148;2022-08-19T05:34:06;15.30;99.90
52435;DHT22;38354;52.892;6.148;2022-08-19T05:36:38;15.30;99.90
52435;DHT22;38354;52.892;6.148;2022-08-19T05:39:11;15.40;99.90
52435;DHT22;38354;52.892;6.148;2022-08-19T05:41:44;15.40;99.90
52435;DHT22;38354;52.892;6.148;2022-08-19T05:44:10;15.50;99.90
52435;DHT22;38354;52.892;6.148;2022-08-19T05:46:37;15.50;99.90
52435;DHT22;38354;52.892;6.148;2022-08-19T05:49:06;15.50;99.90
52435;DHT22;38354;52.892;6.148;2022-08-19T05:51:34;15.60;99.90
52435;DHT22;38354;52.892;6.148;2022-08-19T05:54:04;15.70;99.90
52435;DHT22;38354;52.892;6.148;2022-08-19T05:56:31;15.70;99.90
52435;DHT22;38354;52.892;6.148;2022-08-19T05:58:57;15.70;99.90
52435;DHT22;38354;52.892;6.148;2022-08-19T06:01:25;15.80;99.90
52435;DHT22;38354;52.892;6.148;2022-08-19T06:03:51;15.90;99.90
52435;DHT22;38354;52.892;6.148;2022-08-19T06:06:18;15.90;99.90
52435;DHT22;38354;52.892;6.148;2022-08-19T06:08:44;16.00;99.90
52435;DHT22;38354;52.892;6.148;2022-08-19T06:14:06;16.10;99.90
52435;DHT22;38354;52.892;6.148;2022-08-19T06:16:35;16.20;99.90
52435;DHT22;38354;52.892;6.148;2022-08-19T06:19:03;16.30;99.90
52435;DHT22;38354;52.892;6.148;2022-08-19T06:21:32;16.40;99.90
52435;DHT22;38354;52.892;6.148;2022-08-19T06:23:59;16.50;99.90
52435;DHT22;38354;52.892;6.148;2022-08-19T06:26:25;16.50;99.90
52435;DHT22;38354;52.892;6.148;2022-08-19T06:28:52;16.70;99.90
52435;DHT22;38354;52.892;6.148;2022-08-19T06:31:22;16.80;99.90
52435;DHT22;38354;52.892;6.148;2022-08-19T06:33:49;16.90;99.90
52435;DHT22;38354;52.892;6.148;2022-08-19T06:36:27;17.00;99.90
52435;DHT22;38354;52.892;6.148;2022-08-19T06:39:24;17.10;99.90
52435;DHT22;38354;52.892;6.148;2022-08-19T06:41:53;17.20;99.90
52435;DHT22;38354;52.892;6.148;2022-08-19T06:44:21;17.20;99.90
52435;DHT22;38354;52.892;6.148;2022-08-19T06:46:47;17.40;99.90
52435;DHT22;38354;52.892;6.148;2022-08-19T06:49:14;17.40;99.90
52435;DHT22;38354;52.892;6.148;2022-08-19T06:51:41;17.50;99.90
52435;DHT22;38354;52.892;6.148;2022-08-19T06:54:09;17.60;99.90
52435;DHT22;38354;52.892;6.148;2022-08-19T06:56:35;17.70;99.90
52435;DHT22;38354;52.892;6.148;2022-08-19T06:59:04;17.70;99.90
52435;DHT22;38354;52.892;6.148;2022-08-19T07:01:38;17.80;99.90
52435;DHT22;38354;52.892;6.148;2022-08-19T07:04:06;17.90;99.90
52435;DHT22;38354;52.892;6.148;2022-08-19T07:06:32;18.00;99.90
52435;DHT22;38354;52.892;6.148;2022-08-19T07:08:58;18.00;99.90
52435;DHT22;38354;52.892;6.148;2022-08-19T07:11:24;18.10;99.90
52435;DHT22;38354;52.892;6.148;2022-08-19T07:13:50;18.10;99.90
52435;DHT22;38354;52.892;6.148;2022-08-19T07:16:18;18.20;99.90
52435;DHT22;38354;52.892;6.148;2022-08-19T07:18:46;18.30;99.90
52435;DHT22;38354;52.892;6.148;2022-08-19T07:21:19;18.30;99.90
52435;DHT22;38354;52.892;6.148;2022-08-19T07:23:47;18.40;99.90
52435;DHT22;38354;52.892;6.148;2022-08-19T07:26:19;18.40;99.90
52435;DHT22;38354;52.892;6.148;2022-08-19T07:28:46;18.50;99.90
52435;DHT22;38354;52.892;6.148;2022-08-19T07:31:18;18.60;99.90
52435;DHT22;38354;52.892;6.148;2022-08-19T07:33:46;18.60;99.90
52435;DHT22;38354;52.892;6.148;2022-08-19T07:36:13;18.70;99.90
52435;DHT22;38354;52.892;6.148;2022-08-19T07:38:41;18.80;99.90
52435;DHT22;38354;52.892;6.148;2022-08-19T07:41:12;18.90;99.90
52435;DHT22;38354;52.892;6.148;2022-08-19T07:43:38;19.00;99.90
52435;DHT22;38354;52.892;6.148;2022-08-19T07:46:04;19.10;99.90
52435;DHT22;38354;52.892;6.148;2022-08-19T07:48:30;19.10;99.90
52435;DHT22;38354;52.892;6.148;2022-08-19T07:50:59;19.20;99.90
52435;DHT22;38354;52.892;6.148;2022-08-19T07:53:28;19.30;99.90
52435;DHT22;38354;52.892;6.148;2022-08-19T07:55:54;19.40;99.90
52435;DHT22;38354;52.892;6.148;2022-08-19T07:58:21;19.50;99.90
52435;DHT22;38354;52.892;6.148;2022-08-19T08:00:49;19.50;99.90
52435;DHT22;38354;52.892;6.148;2022-08-19T08:03:18;19.60;99.90
52435;DHT22;38354;52.892;6.148;2022-08-19T08:05:45;19.60;99.90
52435;DHT22;38354;52.892;6.148;2022-08-19T08:08:29;19.80;99.90
52435;DHT22;38354;52.892;6.148;2022-08-19T08:11:01;19.80;99.90
52435;DHT22;38354;52.892;6.148;2022-08-19T08:13:27;19.90;99.90
52435;DHT22;38354;52.892;6.148;2022-08-19T08:15:53;19.90;99.90
52435;DHT22;38354;52.892;6.148;2022-08-19T08:18:19;20.00;99.90
52435;DHT22;38354;52.892;6.148;2022-08-19T08:20:46;20.10;99.90
52435;DHT22;38354;52.892;6.148;2022-08-19T08:23:11;20.10;99.90
52435;DHT22;38354;52.892;6.148;2022-08-19T08:25:54;20.30;99.90
52435;DHT22;38354;52.892;6.148;2022-08-19T08:28:20;20.30;99.90
52435;DHT22;38354;52.892;6.148;2022-08-19T08:30:47;20.40;99.90
52435;DHT22;38354;52.892;6.148;2022-08-19T08:33:18;20.40;99.90
52435;DHT22;38354;52.892;6.148;2022-08-19T08:35:44;20.40;99.90
52435;DHT22;38354;52.892;6.148;2022-08-19T08:38:11;20.50;99.90
52435;DHT22;38354;52.892;6.148;2022-08-19T08:41:03;20.60;99.90
52435;DHT22;38354;52.892;6.148;2022-08-19T08:43:37;20.70;99.90
52435;DHT22;38354;52.892;6.148;2022-08-19T08:51:02;20.90;99.90
52435;DHT22;38354;52.892;6.148;2022-08-19T08:53:28;21.00;99.90
52435;DHT22;38354;52.892;6.148;2022-08-19T08:55:56;21.10;99.90
52435;DHT22;38354;52.892;6.148;2022-08-19T08:58:32;21.10;99.90
52435;DHT22;38354;52.892;6.148;2022-08-19T09:01:09;21.20;99.90
52435;DHT22;38354;52.892;6.148;2022-08-19T09:03:37;21.30;99.90
52435;DHT22;38354;52.892;6.148;2022-08-19T09:06:11;21.40;99.90
52435;DHT22;38354;52.892;6.148;2022-08-19T09:12:01;21.70;99.90
52435;DHT22;38354;52.892;6.148;2022-08-19T09:17:11;22.00;99.90
52435;DHT22;38354;52.892;6.148;2022-08-19T09:20:03;22.00;99.90
52435;DHT22;38354;52.892;6.148;2022-08-19T09:22:33;22.00;99.90
52435;DHT22;38354;52.892;6.148;2022-08-19T09:24:59;22.10;99.90
52435;DHT22;38354;52.892;6.148;2022-08-19T09:27:25;22.20;99.90
52435;DHT22;38354;52.892;6.148;2022-08-19T09:29:53;22.30;99.90
52435;DHT22;38354;52.892;6.148;2022-08-19T09:32:20;22.30;99.90
52435;DHT22;38354;52.892;6.148;2022-08-19T09:34:46;22.50;99.90
52435;DHT22;38354;52.892;6.148;2022-08-19T09:37:12;22.60;99.90
52435;DHT22;38354;52.892;6.148;2022-08-19T09:39:39;22.70;99.90
52435;DHT22;38354;52.892;6.148;2022-08-19T09:42:06;22.80;99.90
52435;DHT22;38354;52.892;6.148;2022-08-19T09:44:38;22.90;99.90
52435;DHT22;38354;52.892;6.148;2022-08-19T09:47:04;23.00;99.90
52435;DHT22;38354;52.892;6.148;2022-08-19T09:49:30;23.00;99.90
52435;DHT22;38354;52.892;6.148;2022-08-19T09:51:57;23.00;99.90
52435;DHT22;38354;52.892;6.148;2022-08-19T09:54:23;23.20;99.90
52435;DHT22;38354;52.892;6.148;2022-08-19T09:56:49;23.30;99.90
52435;DHT22;38354;52.892;6.148;2022-08-19T09:59:15;23.40;99.90
52435;DHT22;38354;52.892;6.148;2022-08-19T10:01:41;23.40;99.90
52435;DHT22;38354;52.892;6.148;2022-08-19T10:04:07;23.50;99.90
52435;DHT22;38354;52.892;6.148;2022-08-19T10:06:38;23.60;99.90
52435;DHT22;38354;52.892;6.148;2022-08-19T10:09:06;23.50;99.90
52435;DHT22;38354;52.892;6.148;2022-08-19T10:11:38;23.50;99.90
52435;DHT22;38354;52.892;6.148;2022-08-19T10:14:05;23.50;99.90
52435;DHT22;38354;52.892;6.148;2022-08-19T10:16:32;23.60;99.90
52435;DHT22;38354;52.892;6.148;2022-08-19T10:18:58;23.70;99.90
52435;DHT22;38354;52.892;6.148;2022-08-19T10:21:27;23.80;99.90
52435;DHT22;38354;52.892;6.148;2022-08-19T10:23:57;23.90;99.90
52435;DHT22;38354;52.892;6.148;2022-08-19T10:26:28;23.90;99.90
52435;DHT22;38354;52.892;6.148;2022-08-19T10:28:55;24.00;99.90
52435;DHT22;38354;52.892;6.148;2022-08-19T10:31:24;24.00;99.90
52435;DHT22;38354;52.892;6.148;2022-08-19T10:33:51;24.10;99.90
52435;DHT22;38354;52.892;6.148;2022-08-19T10:36:30;24.20;99.90
52435;DHT22;38354;52.892;6.148;2022-08-19T10:38:59;24.20;99.90
52435;DHT22;38354;52.892;6.148;2022-08-19T10:41:29;24.40;99.90
52435;DHT22;38354;52.892;6.148;2022-08-19T10:43:58;24.30;99.90
52435;DHT22;38354;52.892;6.148;2022-08-19T10:46:26;24.50;99.90
52435;DHT22;38354;52.892;6.148;2022-08-19T10:48:53;24.40;99.90
52435;DHT22;38354;52.892;6.148;2022-08-19T10:51:20;24.20;99.90
52435;DHT22;38354;52.892;6.148;2022-08-19T10:54:04;23.90;99.90
52435;DHT22;38354;52.892;6.148;2022-08-19T10:56:30;23.90;99.90
52435;DHT22;38354;52.892;6.148;2022-08-19T10:59:15;24.00;99.90
52435;DHT22;38354;52.892;6.148;2022-08-19T11:01:43;24.20;99.90
52435;DHT22;38354;52.892;6.148;2022-08-19T11:04:09;24.40;99.90
52435;DHT22;38354;52.892;6.148;2022-08-19T11:06:40;24.50;99.90
52435;DHT22;38354;52.892;6.148;2022-08-19T11:09:07;24.50;99.90
52435;DHT22;38354;52.892;6.148;2022-08-19T11:11:34;24.50;99.90
52435;DHT22;38354;52.892;6.148;2022-08-19T11:14:10;24.40;99.90
52435;DHT22;38354;52.892;6.148;2022-08-19T11:16:36;24.50;99.90
52435;DHT22;38354;52.892;6.148;2022-08-19T11:19:03;24.70;99.90
52435;DHT22;38354;52.892;6.148;2022-08-19T11:21:32;24.90;99.90
52435;DHT22;38354;52.892;6.148;2022-08-19T11:24:01;25.00;99.90
52435;DHT22;38354;52.892;6.148;2022-08-19T11:26:28;25.10;99.90
52435;DHT22;38354;52.892;6.148;2022-08-19T11:28:55;25.20;99.90
52435;DHT22;38354;52.892;6.148;2022-08-19T11:31:24;25.20;99.90
52435;DHT22;38354;52.892;6.148;2022-08-19T11:33:50;25.30;99.90
52435;DHT22;38354;52.892;6.148;2022-08-19T11:36:20;25.50;99.90
52435;DHT22;38354;52.892;6.148;2022-08-19T11:38:47;25.60;99.90
52435;DHT22;38354;52.892;6.148;2022-08-19T11:41:15;25.60;99.90
52435;DHT22;38354;52.892;6.148;2022-08-19T11:43:41;25.80;99.90
52435;DHT22;38354;52.892;6.148;2022-08-19T11:46:09;25.90;99.90
52435;DHT22;38354;52.892;6.148;2022-08-19T11:48:36;25.80;99.90
52435;DHT22;38354;52.892;6.148;2022-08-19T11:51:11;25.60;99.90
52435;DHT22;38354;52.892;6.148;2022-08-19T11:53:38;25.50;99.90
52435;DHT22;38354;52.892;6.148;2022-08-19T11:56:06;25.60;99.90
52435;DHT22;38354;52.892;6.148;2022-08-19T11:58:32;25.80;99.90
52435;DHT22;38354;52.892;6.148;2022-08-19T12:00:58;25.50;99.90
52435;DHT22;38354;52.892;6.148;2022-08-19T12:03:24;25.40;99.90
52435;DHT22;38354;52.892;6.148;2022-08-19T12:05:51;25.30;99.90
52435;DHT22;38354;52.892;6.148;2022-08-19T12:08:17;25.30;99.90
52435;DHT22;38354;52.892;6.148;2022-08-19T12:10:43;25.40;99.90
52435;DHT22;38354;52.892;6.148;2022-08-19T12:13:11;25.40;99.90
52435;DHT22;38354;52.892;6.148;2022-08-19T12:15:40;25.50;99.90
52435;DHT22;38354;52.892;6.148;2022-08-19T12:18:08;25.50;99.90
52435;DHT22;38354;52.892;6.148;2022-08-19T12:20:38;25.50;99.90
52435;DHT22;38354;52.892;6.148;2022-08-19T12:23:05;25.40;99.90
52435;DHT22;38354;52.892;6.148;2022-08-19T12:25:32;25.50;99.90
52435;DHT22;38354;52.892;6.148;2022-08-19T12:28:00;25.70;99.90
52435;DHT22;38354;52.892;6.148;2022-08-19T12:30:26;25.80;99.90
52435;DHT22;38354;52.892;6.148;2022-08-19T12:32:51;25.90;99.90
52435;DHT22;38354;52.892;6.148;2022-08-19T12:35:18;26.00;99.90
52435;DHT22;38354;52.892;6.148;2022-08-19T12:37:46;26.00;99.90
52435;DHT22;38354;52.892;6.148;2022-08-19T12:40:13;25.90;99.90
52435;DHT22;38354;52.892;6.148;2022-08-19T12:42:39;26.00;99.90
52435;DHT22;38354;52.892;6.148;2022-08-19T12:45:13;26.00;99.90
52435;DHT22;38354;52.892;6.148;2022-08-19T12:47:39;26.10;99.90
52435;DHT22;38354;52.892;6.148;2022-08-19T12:50:06;26.10;99.90
52435;DHT22;38354;52.892;6.148;2022-08-19T12:52:35;26.10;99.90
52435;DHT22;38354;52.892;6.148;2022-08-19T12:55:03;26.00;99.90
52435;DHT22;38354;52.892;6.148;2022-08-19T12:57:30;25.70;99.90
52435;DHT22;38354;52.892;6.148;2022-08-19T13:00:17;25.50;99.90
52435;DHT22;38354;52.892;6.148;2022-08-19T13:02:45;25.40;99.90
52435;DHT22;38354;52.892;6.148;2022-08-19T13:05:15;25.30;99.90
52435;DHT22;38354;52.892;6.148;2022-08-19T13:07:41;25.30;99.90
52435;DHT22;38354;52.892;6.148;2022-08-19T13:10:11;25.30;99.90
52435;DHT22;38354;52.892;6.148;2022-08-19T13:12:38;25.20;99.90
52435;DHT22;38354;52.892;6.148;2022-08-19T13:15:04;25.10;99.90
52435;DHT22;38354;52.892;6.148;2022-08-19T13:17:30;24.90;99.90
52435;DHT22;38354;52.892;6.148;2022-08-19T13:19:56;24.70;99.90
52435;DHT22;38354;52.892;6.148;2022-08-19T13:22:21;24.70;99.90
52435;DHT22;38354;52.892;6.148;2022-08-19T13:24:47;24.60;99.90
52435;DHT22;38354;52.892;6.148;2022-08-19T13:27:14;24.50;99.90
52435;DHT22;38354;52.892;6.148;2022-08-19T13:29:41;24.40;99.90
52435;DHT22;38354;52.892;6.148;2022-08-19T13:32:25;24.30;99.90
52435;DHT22;38354;52.892;6.148;2022-08-19T13:35:10;24.10;99.90
52435;DHT22;38354;52.892;6.148;2022-08-19T13:37:35;24.00;99.90
52435;DHT22;38354;52.892;6.148;2022-08-19T13:40:09;24.00;99.90
52435;DHT22;38354;52.892;6.148;2022-08-19T13:42:41;24.00;99.90
52435;DHT22;38354;52.892;6.148;2022-08-19T13:45:07;24.20;99.90
52435;DHT22;38354;52.892;6.148;2022-08-19T13:47:34;24.40;99.90
52435;DHT22;38354;52.892;6.148;2022-08-19T13:50:04;24.50;99.90
52435;DHT22;38354;52.892;6.148;2022-08-19T13:52:30;24.40;99.90
52435;DHT22;38354;52.892;6.148;2022-08-19T13:54:55;24.30;99.90
52435;DHT22;38354;52.892;6.148;2022-08-19T13:57:22;24.20;99.90
52435;DHT22;38354;52.892;6.148;2022-08-19T13:59:48;24.10;99.90
52435;DHT22;38354;52.892;6.148;2022-08-19T14:02:14;24.00;99.90
52435;DHT22;38354;52.892;6.148;2022-08-19T14:04:40;23.90;99.90
52435;DHT22;38354;52.892;6.148;2022-08-19T14:07:05;23.90;99.90
52435;DHT22;38354;52.892;6.148;2022-08-19T14:09:31;23.70;99.90
52435;DHT22;38354;52.892;6.148;2022-08-19T14:11:56;23.60;99.90
52435;DHT22;38354;52.892;6.148;2022-08-19T14:14:22;23.60;99.90
52435;DHT22;38354;52.892;6.148;2022-08-19T14:16:48;23.60;99.90
52435;DHT22;38354;52.892;6.148;2022-08-19T14:19:15;23.50;99.90
52435;DHT22;38354;52.892;6.148;2022-08-19T14:21:40;23.60;99.90
52435;DHT22;38354;52.892;6.148;2022-08-19T14:24:07;23.70;99.90
52435;DHT22;38354;52.892;6.148;2022-08-19T14:26:32;23.90;99.90
52435;DHT22;38354;52.892;6.148;2022-08-19T14:28:58;23.90;99.90
52435;DHT22;38354;52.892;6.148;2022-08-19T14:31:24;23.90;99.90
52435;DHT22;38354;52.892;6.148;2022-08-19T14:33:50;23.90;99.90
52435;DHT22;38354;52.892;6.148;2022-08-19T14:36:18;23.90;99.90
52435;DHT22;38354;52.892;6.148;2022-08-19T14:38:44;23.90;99.90
52435;DHT22;38354;52.892;6.148;2022-08-19T14:41:14;23.90;99.90
52435;DHT22;38354;52.892;6.148;2022-08-19T14:43:41;23.90;99.90
52435;DHT22;38354;52.892;6.148;2022-08-19T14:46:08;23.90;99.90
52435;DHT22;38354;52.892;6.148;2022-08-19T14:48:35;23.90;99.90
52435;DHT22;38354;52.892;6.148;2022-08-19T14:51:04;24.00;99.90
52435;DHT22;38354;52.892;6.148;2022-08-19T14:53:29;24.20;99.90
52435;DHT22;38354;52.892;6.148;2022-08-19T14:55:55;24.30;99.90
52435;DHT22;38354;52.892;6.148;2022-08-19T14:58:21;24.30;99.90
52435;DHT22;38354;52.892;6.148;2022-08-19T15:00:48;24.30;99.90
52435;DHT22;38354;52.892;6.148;2022-08-19T15:03:13;24.10;99.90
52435;DHT22;38354;52.892;6.148;2022-08-19T15:05:39;24.00;99.90
52435;DHT22;38354;52.892;6.148;2022-08-19T15:08:05;24.00;99.90
52435;DHT22;38354;52.892;6.148;2022-08-19T15:10:30;23.90;99.90
52435;DHT22;38354;52.892;6.148;2022-08-19T15:12:56;23.80;99.90
52435;DHT22;38354;52.892;6.148;2022-08-19T15:15:22;23.80;99.90
52435;DHT22;38354;52.892;6.148;2022-08-19T15:17:48;23.70;99.90
52435;DHT22;38354;52.892;6.148;2022-08-19T15:20:17;23.70;99.90
52435;DHT22;38354;52.892;6.148;2022-08-19T15:22:43;23.70;99.90
52435;DHT22;38354;52.892;6.148;2022-08-19T15:25:11;23.60;99.90
52435;DHT22;38354;52.892;6.148;2022-08-19T15:27:38;23.60;99.90
52435;DHT22;38354;52.892;6.148;2022-08-19T15:30:06;23.60;99.90
52435;DHT22;38354;52.892;6.148;2022-08-19T15:32:33;23.50;99.90
52435;DHT22;38354;52.892;6.148;2022-08-19T15:35:00;23.60;99.90
52435;DHT22;38354;52.892;6.148;2022-08-19T15:37:28;23.60;99.90
52435;DHT22;38354;52.892;6.148;2022-08-19T15:39:53;23.60;99.90
52435;DHT22;38354;52.892;6.148;2022-08-19T15:42:19;23.70;99.90
52435;DHT22;38354;52.892;6.148;2022-08-19T15:44:46;23.70;99.90
52435;DHT22;38354;52.892;6.148;2022-08-19T15:47:12;23.70;99.90
52435;DHT22;38354;52.892;6.148;2022-08-19T15:49:38;23.70;99.90
52435;DHT22;38354;52.892;6.148;2022-08-19T15:52:04;23.80;99.90
52435;DHT22;38354;52.892;6.148;2022-08-19T15:54:32;23.80;99.90
52435;DHT22;38354;52.892;6.148;2022-08-19T15:56:58;23.80;99.90
52435;DHT22;38354;52.892;6.148;2022-08-19T15:59:42;23.80;99.90
52435;DHT22;38354;52.892;6.148;2022-08-19T16:02:27;23.80;99.90
52435;DHT22;38354;52.892;6.148;2022-08-19T16:05:13;23.70;99.90
52435;DHT22;38354;52.892;6.148;2022-08-19T16:07:58;23.70;99.90
52435;DHT22;38354;52.892;6.148;2022-08-19T16:10:24;23.60;99.90
52435;DHT22;38354;52.892;6.148;2022-08-19T16:12:50;23.60;99.90
52435;DHT22;38354;52.892;6.148;2022-08-19T16:15:16;23.50;99.90
52435;DHT22;38354;52.892;6.148;2022-08-19T16:17:42;23.40;99.90
52435;DHT22;38354;52.892;6.148;2022-08-19T16:20:08;23.50;99.90
52435;DHT22;38354;52.892;6.148;2022-08-19T16:22:36;23.40;99.90
52435;DHT22;38354;52.892;6.148;2022-08-19T16:25:03;23.50;99.90
52435;DHT22;38354;52.892;6.148;2022-08-19T16:27:29;23.50;99.90
52435;DHT22;38354;52.892;6.148;2022-08-19T16:29:55;23.60;99.90
52435;DHT22;38354;52.892;6.148;2022-08-19T16:32:21;23.50;99.90
52435;DHT22;38354;52.892;6.148;2022-08-19T16:34:47;23.50;99.90
52435;DHT22;38354;52.892;6.148;2022-08-19T16:37:14;23.50;99.90
52435;DHT22;38354;52.892;6.148;2022-08-19T16:39:40;23.40;99.90
52435;DHT22;38354;52.892;6.148;2022-08-19T16:42:10;23.40;99.90
52435;DHT22;38354;52.892;6.148;2022-08-19T16:44:40;23.40;99.90
52435;DHT22;38354;52.892;6.148;2022-08-19T16:47:06;23.30;99.90
52435;DHT22;38354;52.892;6.148;2022-08-19T16:49:32;23.30;99.90
52435;DHT22;38354;52.892;6.148;2022-08-19T16:51:58;23.30;99.90
52435;DHT22;38354;52.892;6.148;2022-08-19T16:54:24;23.30;99.90
52435;DHT22;38354;52.892;6.148;2022-08-19T16:56:51;23.30;99.90
52435;DHT22;38354;52.892;6.148;2022-08-19T16:59:16;23.30;99.90
52435;DHT22;38354;52.892;6.148;2022-08-19T17:01:42;23.30;99.90
52435;DHT22;38354;52.892;6.148;2022-08-19T17:04:09;23.30;99.90
52435;DHT22;38354;52.892;6.148;2022-08-19T17:06:35;23.20;99.90
52435;DHT22;38354;52.892;6.148;2022-08-19T17:09:04;23.20;99.90
52435;DHT22;38354;52.892;6.148;2022-08-19T17:11:31;23.20;99.90
52435;DHT22;38354;52.892;6.148;2022-08-19T17:14:01;23.20;99.90
52435;DHT22;38354;52.892;6.148;2022-08-19T17:16:29;23.10;99.90
52435;DHT22;38354;52.892;6.148;2022-08-19T17:18:58;23.10;99.90
52435;DHT22;38354;52.892;6.148;2022-08-19T17:21:26;23.00;99.90
52435;DHT22;38354;52.892;6.148;2022-08-19T17:23:54;22.90;99.90
52435;DHT22;38354;52.892;6.148;2022-08-19T17:26:20;22.80;99.90
52435;DHT22;38354;52.892;6.148;2022-08-19T17:28:49;22.80;99.90
52435;DHT22;38354;52.892;6.148;2022-08-19T17:31:15;22.60;99.90
52435;DHT22;38354;52.892;6.148;2022-08-19T17:33:41;22.60;99.90
52435;DHT22;38354;52.892;6.148;2022-08-19T17:36:08;22.50;99.90
52435;DHT22;38354;52.892;6.148;2022-08-19T17:38:33;22.30;99.90
52435;DHT22;38354;52.892;6.148;2022-08-19T17:41:00;22.30;99.90
52435;DHT22;38354;52.892;6.148;2022-08-19T17:43:31;22.20;99.90
52435;DHT22;38354;52.892;6.148;2022-08-19T17:45:59;22.10;99.90
52435;DHT22;38354;52.892;6.148;2022-08-19T17:48:32;22.10;99.90
52435;DHT22;38354;52.892;6.148;2022-08-19T17:51:22;22.00;99.90
52435;DHT22;38354;52.892;6.148;2022-08-19T17:53:50;22.00;99.90
52435;DHT22;38354;52.892;6.148;2022-08-19T17:56:16;22.00;99.90
52435;DHT22;38354;52.892;6.148;2022-08-19T17:58:42;21.90;99.90
52435;DHT22;38354;52.892;6.148;2022-08-19T18:01:13;22.00;99.90
52435;DHT22;38354;52.892;6.148;2022-08-19T18:03:40;22.00;99.90
52435;DHT22;38354;52.892;6.148;2022-08-19T18:06:07;21.90;99.90
52435;DHT22;38354;52.892;6.148;2022-08-19T18:08:34;21.90;99.90
52435;DHT22;38354;52.892;6.148;2022-08-19T18:11:04;21.90;99.90
52435;DHT22;38354;52.892;6.148;2022-08-19T18:13:30;21.90;99.90
52435;DHT22;38354;52.892;6.148;2022-08-19T18:15:56;21.90;99.90
52435;DHT22;38354;52.892;6.148;2022-08-19T18:18:25;21.90;99.90
52435;DHT22;38354;52.892;6.148;2022-08-19T18:20:54;21.80;99.90
52435;DHT22;38354;52.892;6.148;2022-08-19T18:23:20;21.80;99.90
52435;DHT22;38354;52.892;6.148;2022-08-19T18:25:46;21.80;99.90
52435;DHT22;38354;52.892;6.148;2022-08-19T18:28:11;21.80;99.90
52435;DHT22;38354;52.892;6.148;2022-08-19T18:30:37;21.70;99.90
52435;DHT22;38354;52.892;6.148;2022-08-19T18:33:06;21.80;99.90
52435;DHT22;38354;52.892;6.148;2022-08-19T18:35:41;21.80;99.90
52435;DHT22;38354;52.892;6.148;2022-08-19T18:38:10;21.70;99.90
52435;DHT22;38354;52.892;6.148;2022-08-19T18:40:55;21.60;99.90
52435;DHT22;38354;52.892;6.148;2022-08-19T18:43:40;21.60;99.90
52435;DHT22;38354;52.892;6.148;2022-08-19T18:46:24;21.60;99.90
52435;DHT22;38354;52.892;6.148;2022-08-19T18:49:09;21.50;99.90
52435;DHT22;38354;52.892;6.148;2022-08-19T18:51:35;21.40;99.90
52435;DHT22;38354;52.892;6.148;2022-08-19T18:54:01;21.40;99.90